Accueil
METAR-TAF:

METAR-TAF

Aéroports :

Le Helder, Pays-Bas

latitude: 52-55N, longitude: 004-47E, altitude: 0 m

Observation

Le bulletin a été fait il y a 30 minutes, à 11:55 UTC
Vent 12 kt de est
Température 2°C
Humidité 75%
Pression 1025 hPa
Visibilité 10 km ou plus
Ciel couvert à une hauteur de 20000 ft
Quelques nuages à une hauteur de 1500 ft
Quelques nuages à une hauteur de 4000 ft

METAR: EHKD 231155Z AUTO 08014KT 9999 OVC200 02/M02 Q1025 BLU 08012KT 9999 FEW015 FEW040

Heure: 13:25 (12:25 UTC)

Prévision

Le bulletin a été fait il y a 3 heures et 34 minutes, à 08:51 UTC
Prévision valable du 23 à 10 UTC au 23 à 22 UTC
Vent 14 kt de est
Visibilité 10 km ou plus
Nuages fragmentés à une hauteur de 4000 ft
Evoluant progressivement
du 23 à 12 UTC au 23 à 15 UTC
Vent 14 kt de est avec des rafales jusqu'à 24 kt

TAF: EHKD 230851Z 2310/2322 08014KT 9999 BKN040 BECMG 2312/2315 09014G24KT

Observations et prévisions météorologiques de plus de 4000 aéroports (messages METAR et TAF).

Les stations disponibles sont représentées par des disques jaunes et rouges sur la carte.

Passer la souris dessus pour voir le nom de la station.

Cliquer dessus pour voir les observations et prévisions météorologiques.

Pour changer de carte: cliquez sur les boutons verts avec une croix noire pour zoomer, sur le bouton vert avec un tiret pour effectuer un zoom arrière, ou sur les flèches vertes pour les cartes adjacentes.


METAR-TAF: